Time;durP1;ratioP1;P1;durP2;ratioP2;P2;SDS_P1;SDS_P2;PMS_P1;PMS_P2;Temp;Humidity;BMP_temperature;BMP_pressure;BME280_temperature;BME280_humidity;BME280_pressure;Samples;Min_cycle;Max_cycle;Signal;HPM_P1;HPM_P2
2023/10/03 18:10:22;;;;;;;;;25.00;23.00;;;;;25.77;33.44;101793.39;115531;1201;62092;-61
2023/10/03 18:12:51;;;;;;;;;26.50;24.00;;;;;25.96;33.69;101798.98;116777;1185;91018;-62
2023/10/03 18:15:19;;;;;;;;;22.00;20.50;;;;;26.13;33.88;101801.77;116339;1194;94872;-61
2023/10/03 18:17:48;;;;;;;;;30.00;26.00;;;;;26.14;33.83;101802.73;116781;1182;90572;-62
2023/10/03 18:20:17;;;;;;;;;25.50;21.50;;;;;26.15;33.98;101804.20;116438;1194;71957;-64
2023/10/03 18:22:46;;;;;;;;;24.50;22.50;;;;;26.17;34.27;101804.54;116614;1194;91253;-62
2023/10/03 18:25:18;;;;;;;;;26.33;21.00;;;;;26.18;34.21;101805.00;116945;1180;94677;-61
2023/10/03 18:27:46;;;;;;;;;23.00;19.50;;;;;26.20;34.20;101805.88;116809;1193;90506;-61
2023/10/03 18:30:15;;;;;;;;;21.00;20.00;;;;;26.27;34.08;101805.83;116716;1182;73004;-62
2023/10/03 18:32:44;;;;;;;;;23.50;23.50;;;;;26.32;34.29;101810.88;116322;1182;89635;-62
2023/10/03 18:35:14;;;;;;;;;19.50;19.50;;;;;26.33;34.22;101803.19;116541;1194;94533;-62
2023/10/03 18:37:42;;;;;;;;;20.50;19.00;;;;;26.35;34.23;101805.29;116525;1185;91694;-61
2023/10/03 18:40:14;;;;;;;;;21.00;16.50;;;;;26.35;34.41;101801.11;116679;1186;73775;-63
2023/10/03 18:42:42;;;;;;;;;25.00;24.00;;;;;26.38;34.12;101804.67;116368;1183;90305;-62
2023/10/03 18:45:12;;;;;;;;;23.00;19.00;;;;;26.38;34.27;101805.74;117198;1185;94323;-61
2023/10/03 18:47:41;;;;;;;;;19.00;19.00;;;;;26.47;34.20;101806.46;116512;1190;91064;-61
2023/10/03 18:50:10;;;;;;;;;20.50;18.00;;;;;26.50;33.99;101802.39;116247;1182;73938;-61
2023/10/03 18:52:39;;;;;;;;;24.33;20.67;;;;;26.42;34.41;101805.01;116711;1183;91049;-58
2023/10/03 18:55:09;;;;;;;;;20.50;19.50;;;;;26.44;34.36;101804.44;116795;1192;93872;-61
2023/10/03 18:57:38;;;;;;;;;16.00;16.00;;;;;26.52;34.15;101802.04;116750;1192;90591;-61
2023/10/03 19:00:07;;;;;;;;;22.50;19.00;;;;;26.58;34.15;101801.42;116339;1183;74325;-67
2023/10/03 19:02:36;;;;;;;;;19.50;18.50;;;;;26.57;34.06;101803.45;116459;1188;90666;-61
2023/10/03 19:05:05;;;;;;;;;16.50;16.50;;;;;26.56;34.02;101800.38;116270;1184;94383;-59
2023/10/03 19:07:34;;;;;;;;;17.50;16.50;;;;;26.55;34.20;101802.23;116357;1184;91260;-59
2023/10/03 19:10:11;;;;;;;;;21.00;17.00;;;;;26.54;34.14;101800.39;116404;1191;73199;-61
2023/10/03 19:12:42;;;;;;;;;22.00;20.00;;;;;26.52;34.10;101797.70;116199;1184;90763;-60
2023/10/03 19:15:11;;;;;;;;;20.50;20.00;;;;;26.48;34.13;101804.10;116186;1183;94898;-59
2023/10/03 19:17:39;;;;;;;;;20.00;19.00;;;;;26.45;34.17;101800.28;116043;1184;91036;-62
2023/10/03 19:20:09;;;;;;;;;20.00;20.00;;;;;26.43;34.07;101796.23;116134;1194;74291;-61
2023/10/03 19:22:38;;;;;;;;;19.00;17.00;;;;;26.44;34.15;101798.05;115774;1198;89834;-61
2023/10/03 19:25:09;;;;;;;;;18.00;17.00;;;;;26.44;33.98;101795.52;115741;1191;94691;-59
2023/10/03 19:27:40;;;;;;;;;22.50;20.00;;;;;26.40;33.92;101794.45;115888;1190;91091;-61
2023/10/03 19:30:13;;;;;;;;;23.50;20.50;;;;;26.37;33.75;101802.15;116002;1187;74100;-61
2023/10/03 19:32:48;;;;;;;;;17.00;17.00;;;;;26.39;33.70;101794.63;115909;1185;91349;-61
2023/10/03 19:35:19;;;;;;;;;24.00;21.50;;;;;26.39;33.70;101791.08;115762;1197;94877;-61
2023/10/03 19:37:47;;;;;;;;;23.00;21.00;;;;;26.39;33.38;101794.80;115947;1187;91171;-60
2023/10/03 19:40:16;;;;;;;;;17.50;17.50;;;;;26.39;33.48;101793.75;115814;1187;73197;-60
2023/10/03 19:42:45;;;;;;;;;18.50;17.00;;;;;26.39;33.43;101788.55;116158;1187;90603;-60
2023/10/03 19:45:13;;;;;;;;;15.00;14.50;;;;;26.36;33.44;101783.85;115858;1183;93829;-60
2023/10/03 19:47:42;;;;;;;;;20.00;17.00;;;;;26.33;33.56;101789.26;116047;1186;90977;-61
2023/10/03 19:50:11;;;;;;;;;17.50;16.00;;;;;26.32;33.26;101782.36;116265;1184;73609;-59
2023/10/03 19:52:39;;;;;;;;;17.00;17.00;;;;;26.31;33.25;101776.23;116087;1189;89957;-60
2023/10/03 19:55:09;;;;;;;;;17.00;16.50;;;;;26.30;33.43;101775.77;116219;1190;94834;-60
2023/10/03 19:57:38;;;;;;;;;18.50;18.50;;;;;26.30;33.34;101774.34;116204;1182;91479;-61
2023/10/03 20:00:13;;;;;;;;;16.00;16.00;;;;;26.31;33.19;101774.11;116187;1184;73556;-61
2023/10/03 20:02:46;;;;;;;;;16.50;14.00;;;;;26.35;33.05;101771.65;116315;1192;91065;-61
2023/10/03 20:05:14;;;;;;;;;19.00;17.00;;;;;26.39;33.09;101770.23;116190;1195;95249;-60
2023/10/03 20:07:43;;;;;;;;;15.50;14.00;;;;;26.39;32.97;101770.29;115989;1195;90721;-60
2023/10/03 20:10:14;;;;;;;;;19.00;17.00;;;;;26.40;33.01;101766.36;116332;1183;72717;-61
2023/10/03 20:12:44;;;;;;;;;20.50;20.00;;;;;26.41;33.06;101766.35;116362;1183;90590;-60
2023/10/03 20:15:16;;;;;;;;;23.50;17.00;;;;;26.42;32.83;101764.53;116231;1184;94955;-60
2023/10/03 20:17:45;;;;;;;;;21.50;17.00;;;;;26.46;32.78;101761.09;117550;1183;91410;-60
2023/10/03 20:20:14;;;;;;;;;14.00;13.00;;;;;26.66;32.39;101762.98;116216;1184;73672;-60
2023/10/03 20:22:43;;;;;;;;;19.00;19.00;;;;;26.68;32.31;101756.63;116388;1184;90322;-62
2023/10/03 20:25:13;;;;;;;;;15.00;14.50;;;;;26.64;32.62;101759.15;117187;1195;93885;-59
2023/10/03 20:27:44;;;;;;;;;12.00;12.00;;;;;26.71;32.21;101758.24;116261;1195;90865;-59
2023/10/03 20:30:14;;;;;;;;;16.00;13.00;;;;;26.64;32.45;101760.25;116060;1183;73657;-60
2023/10/03 20:32:43;;;;;;;;;16.00;14.00;;;;;26.54;32.32;101756.87;115907;1195;89241;-60
2023/10/03 20:35:14;;;;;;;;;15.00;14.00;;;;;26.44;32.36;101754.95;116169;1182;94027;-60
2023/10/03 20:37:42;;;;;;;;;18.00;14.50;;;;;26.35;32.78;101753.63;115870;1183;91025;-60
2023/10/03 20:40:11;;;;;;;;;18.00;16.00;;;;;26.29;32.78;101750.60;116189;1183;73046;-60
2023/10/03 20:42:39;;;;;;;;;18.50;15.00;;;;;26.24;32.81;101748.17;116205;1195;89487;-60
2023/10/03 20:45:09;;;;;;;;;17.00;16.50;;;;;26.19;32.92;101751.57;116102;1195;95807;-60
2023/10/03 20:47:38;;;;;;;;;14.00;14.00;;;;;26.15;32.89;101749.91;116107;1195;91823;-61
2023/10/03 20:50:08;;;;;;;;;16.00;16.00;;;;;26.13;33.11;101751.91;115897;1185;72833;-60
2023/10/03 20:52:37;;;;;;;;;17.00;16.00;;;;;26.11;33.14;101752.38;116106;1189;91266;-60
2023/10/03 20:55:06;;;;;;;;;14.00;14.00;;;;;26.09;33.04;101750.84;115914;1185;94779;-60
2023/10/03 20:57:35;;;;;;;;;20.00;16.50;;;;;26.07;33.18;101746.50;115896;1186;91600;-60
2023/10/03 21:00:06;;;;;;;;;18.00;14.50;;;;;26.05;33.12;101748.52;115839;1185;72892;-59
2023/10/03 21:02:36;;;;;;;;;17.50;15.50;;;;;26.04;33.17;101746.85;115795;1183;90708;-59
2023/10/03 21:05:05;;;;;;;;;16.50;15.50;;;;;26.02;33.23;101748.52;115561;1190;94546;-60
2023/10/03 21:07:33;;;;;;;;;16.00;15.50;;;;;26.02;33.13;101750.03;115505;1201;90791;-61
2023/10/03 21:10:03;;;;;;;;;17.50;13.50;;;;;26.02;33.28;101747.55;115599;1190;71983;-60
2023/10/03 21:12:31;;;;;;;;;16.50;16.00;;;;;26.01;33.08;101751.46;115459;1189;91352;-60
2023/10/03 21:15:01;;;;;;;;;14.00;13.50;;;;;26.00;33.21;101751.22;115476;1188;94930;-60
2023/10/03 21:17:30;;;;;;;;;16.00;16.00;;;;;25.98;33.30;101749.03;115524;1200;91117;-61
2023/10/03 21:19:59;;;;;;;;;17.50;17.50;;;;;25.97;33.19;101748.63;115500;1190;73508;-59
2023/10/03 21:22:31;;;;;;;;;18.00;17.00;;;;;25.97;33.29;101744.79;115774;1195;91206;-60
2023/10/03 21:24:59;;;;;;;;;17.00;16.00;;;;;25.97;33.23;101741.36;115925;1184;94534;-60
2023/10/03 21:27:30;;;;;;;;;13.50;13.50;;;;;25.96;33.18;101740.40;115885;1183;89674;-61
2023/10/03 21:30:00;;;;;;;;;15.00;14.00;;;;;25.96;33.23;101739.39;115913;1184;73425;-60
2023/10/03 21:32:28;;;;;;;;;16.00;14.00;;;;;25.94;33.20;101739.94;115852;1195;90669;-59
2023/10/03 21:34:58;;;;;;;;;12.50;12.00;;;;;25.93;33.36;101738.05;116079;1184;94239;-60
2023/10/03 21:37:29;;;;;;;;;16.00;15.00;;;;;25.94;33.23;101735.55;115869;1184;91380;-59
2023/10/03 21:39:57;;;;;;;;;12.00;12.00;;;;;25.94;33.22;101734.38;116161;1184;73595;-59
2023/10/03 21:42:26;;;;;;;;;14.00;13.00;;;;;25.94;33.25;101731.48;116095;1195;89728;-60
2023/10/03 21:44:57;;;;;;;;;15.00;14.00;;;;;25.94;33.16;101735.44;115953;1195;95064;-60
2023/10/03 21:47:27;;;;;;;;;18.00;13.00;;;;;25.96;33.20;101731.12;116146;1182;91670;-60
2023/10/03 21:49:55;;;;;;;;;18.50;17.50;;;;;25.97;33.15;101726.89;116237;1195;72496;-60
2023/10/03 21:52:24;;;;;;;;;15.00;15.00;;;;;25.98;33.21;101724.83;116119;1195;91399;-60
2023/10/03 21:54:54;;;;;;;;;16.00;15.50;;;;;25.97;33.20;101728.92;115964;1183;95282;-60
2023/10/03 21:57:23;;;;;;;;;15.00;14.50;;;;;25.97;33.24;101729.68;116166;1186;91357;-60
2023/10/03 21:59:54;;;;;;;;;16.00;14.00;;;;;25.96;33.15;101729.48;115782;1187;72978;-58
2023/10/03 22:02:23;;;;;;;;;18.00;15.00;;;;;25.94;33.14;101725.14;115903;1185;90748;-61
2023/10/03 22:04:54;;;;;;;;;18.00;16.00;;;;;25.94;33.08;101732.23;116212;1182;93973;-61
2023/10/03 22:07:22;;;;;;;;;13.00;12.50;;;;;25.93;33.26;101731.48;116123;1190;90962;-61
2023/10/03 22:09:50;;;;;;;;;15.00;15.00;;;;;25.91;33.08;101726.80;116877;1185;73399;-60
2023/10/03 22:12:20;;;;;;;;;15.00;14.00;;;;;26.08;33.08;101722.66;117200;1182;91077;-60
2023/10/03 22:14:48;;;;;;;;;12.00;12.00;;;;;26.30;32.44;101722.19;116195;1181;94613;-62
2023/10/03 22:17:18;;;;;;;;;15.50;15.50;;;;;26.29;32.45;101721.02;116127;1184;90471;-60
2023/10/03 22:19:47;;;;;;;;;14.50;12.50;;;;;26.20;32.61;101719.76;116184;1182;73638;-60
2023/10/03 22:22:15;;;;;;;;;15.50;14.00;;;;;26.14;32.76;101721.02;116084;1182;91117;-60
2023/10/03 22:24:46;;;;;;;;;17.00;17.00;;;;;26.10;32.73;101721.52;116272;1180;94673;-61
2023/10/03 22:27:16;;;;;;;;;12.00;12.00;;;;;26.05;32.85;101717.61;116145;1193;92428;-61
2023/10/03 22:29:44;;;;;;;;;12.50;11.50;;;;;26.01;32.98;101714.91;116240;1181;73830;-60
2023/10/03 22:32:12;;;;;;;;;15.00;13.00;;;;;25.97;32.79;101715.39;115917;1195;91506;-60
2023/10/03 22:34:41;;;;;;;;;18.00;17.00;;;;;25.94;33.05;101716.70;116101;1183;93640;-60
2023/10/03 22:37:12;;;;;;;;;18.00;14.50;;;;;25.92;33.06;101719.05;116117;1184;91479;-60
2023/10/03 22:39:40;;;;;;;;;16.00;16.00;;;;;25.91;33.04;101713.73;115911;1195;73152;-61
2023/10/03 22:42:10;;;;;;;;;19.00;14.00;;;;;25.90;33.10;101712.81;115713;1186;90437;-60
2023/10/03 22:44:39;;;;;;;;;15.00;14.00;;;;;25.89;33.06;101713.61;115584;1187;94291;-61
2023/10/03 22:47:07;;;;;;;;;17.00;14.00;;;;;25.88;33.09;101715.10;115838;1187;92786;-61
2023/10/03 22:49:35;;;;;;;;;15.50;14.50;;;;;25.88;33.00;101712.41;115638;1196;72767;-61
2023/10/03 22:52:06;;;;;;;;;13.50;12.50;;;;;25.87;33.14;101714.39;116088;1184;90102;-61
2023/10/03 22:54:36;;;;;;;;;17.00;16.00;;;;;25.85;33.17;101709.30;115875;1183;94385;-60
2023/10/03 22:57:05;;;;;;;;;13.00;11.00;;;;;25.84;33.05;101705.30;115894;1196;92398;-60
2023/10/03 22:59:36;;;;;;;;;16.50;14.50;;;;;25.83;33.18;101706.10;115940;1192;73347;-61
2023/10/03 23:02:07;;;;;;;;;16.50;13.50;;;;;25.83;33.10;101707.58;116490;1181;91163;-59
2023/10/03 23:04:36;;;;;;;;;16.00;14.00;;;;;25.83;33.10;101703.84;116296;1192;94951;-60
2023/10/03 23:07:06;;;;;;;;;16.00;14.00;;;;;25.81;33.22;101700.38;116296;1192;91127;-61
2023/10/03 23:09:35;;;;;;;;;17.00;14.00;;;;;25.81;33.21;101700.45;116603;1180;73398;-60
2023/10/03 23:12:04;;;;;;;;;17.00;16.00;;;;;25.80;33.22;101691.10;116511;1180;90827;-61
2023/10/03 23:14:32;;;;;;;;;14.50;13.00;;;;;25.78;32.94;101690.78;116251;1183;95297;-60
2023/10/03 23:17:00;;;;;;;;;16.00;14.00;;;;;25.77;33.25;101685.22;116282;1192;92412;-60
2023/10/03 23:19:31;;;;;;;;;18.00;16.50;;;;;25.76;33.17;101680.08;116625;1189;73601;-60
2023/10/03 23:21:59;;;;;;;;;15.00;15.00;;;;;25.75;33.25;101680.74;116296;1180;90412;-59
2023/10/03 23:24:27;;;;;;;;;13.00;13.00;;;;;25.75;33.18;101679.14;116481;1193;94958;-60
2023/10/03 23:26:56;;;;;;;;;17.50;14.50;;;;;25.74;33.22;101677.24;116226;1181;90879;-60
2023/10/03 23:29:24;;;;;;;;;15.00;13.50;;;;;25.73;33.30;101677.54;116524;1180;73746;-60
2023/10/03 23:31:55;;;;;;;;;16.00;16.00;;;;;25.72;33.23;101670.20;116576;1192;90683;-59
2023/10/03 23:34:23;;;;;;;;;11.50;11.50;;;;;25.73;33.06;101668.23;116296;1185;94381;-60
2023/10/03 23:36:53;;;;;;;;;15.00;14.00;;;;;25.72;33.07;101663.60;116277;1180;91885;-59
2023/10/03 23:39:23;;;;;;;;;14.00;13.00;;;;;25.71;33.23;101663.00;116289;1193;73550;-60
2023/10/03 23:41:54;;;;;;;;;14.00;14.00;;;;;25.71;33.10;101656.20;116195;1185;90942;-60
2023/10/03 23:44:23;;;;;;;;;14.50;14.00;;;;;25.71;33.17;101652.80;116399;1193;94875;-60
2023/10/03 23:46:52;;;;;;;;;18.50;15.50;;;;;25.71;33.24;101649.89;116286;1187;92647;-60
2023/10/03 23:49:23;;;;;;;;;13.00;13.00;;;;;25.71;33.21;101648.75;116182;1180;72989;-59
2023/10/03 23:51:51;;;;;;;;;15.00;15.00;;;;;25.71;33.31;101644.96;116132;1183;91085;-62
2023/10/03 23:54:19;;;;;;;;;13.00;12.00;;;;;25.70;33.13;101646.90;116135;1182;94327;-61
2023/10/03 23:56:50;;;;;;;;;13.00;12.00;;;;;25.70;33.27;101646.56;116076;1183;91497;-59
2023/10/03 23:59:20;;;;;;;;;11.50;11.50;;;;;25.70;33.17;101640.91;116057;1183;73555;-60
